Time;durP1;ratioP1;P1;durP2;ratioP2;P2;SDS_P1;SDS_P2;PMS_P1;PMS_P2;Temp;Humidity;BMP_temperature;BMP_pressure;BME280_temperature;BME280_humidity;BME280_pressure;Samples;Min_cycle;Max_cycle;Signal;HPM_P1;HPM_P2
2022/03/03 00:01:35;;;;;;;5.47;4.03;;;;;;;14.28;51.73;101992.78;6175186;23;20055;-56
2022/03/03 00:04:00;;;;;;;4.15;3.30;;;;;;;14.27;51.87;101983.03;6175834;23;20451;-54
2022/03/03 00:06:26;;;;;;;4.30;3.80;;;;;;;14.26;51.43;101984.00;6174421;23;20058;-56
2022/03/03 00:08:51;;;;;;;5.78;3.88;;;;;;;14.26;51.74;101984.00;6175407;23;20445;-56
2022/03/03 00:11:16;;;;;;;3.78;3.40;;;;;;;14.25;51.77;101987.63;6174990;23;20032;-56
2022/03/03 00:13:42;;;;;;;4.03;3.60;;;;;;;14.25;51.74;101982.25;6174343;23;20082;-56
2022/03/03 00:16:08;;;;;;;5.25;3.75;;;;;;;14.24;51.48;101986.75;6175104;23;20059;-56
2022/03/03 00:18:33;;;;;;;4.28;3.75;;;;;;;14.24;51.75;101977.84;6148038;23;20109;-55
2022/03/03 00:20:59;;;;;;;4.75;3.55;;;;;;;14.24;51.58;101986.75;6174349;23;20020;-56
2022/03/03 00:23:24;;;;;;;4.28;3.80;;;;;;;14.23;51.30;101986.84;6175032;23;20009;-56
2022/03/03 00:25:49;;;;;;;4.53;3.75;;;;;;;14.23;51.44;101981.50;6175443;23;20004;-55
2022/03/03 00:28:15;;;;;;;3.95;3.47;;;;;;;14.22;51.47;101982.44;6175536;23;20009;-56
2022/03/03 00:30:40;;;;;;;4.00;3.58;;;;;;;14.21;51.58;101976.22;6175567;23;20009;-55
2022/03/03 00:33:05;;;;;;;3.35;3.00;;;;;;;14.21;51.25;101981.56;6175496;23;20005;-56
2022/03/03 00:35:31;;;;;;;4.47;4.03;;;;;;;14.21;51.47;101978.03;6175515;23;20381;-56
2022/03/03 00:37:57;;;;;;;3.97;3.40;;;;;;;14.20;51.24;101973.63;6174930;23;20005;-55
2022/03/03 00:40:22;;;;;;;5.00;3.53;;;;;;;14.20;51.50;101970.94;6176437;23;20015;-55
2022/03/03 00:42:47;;;;;;;5.00;3.95;;;;;;;14.19;51.65;101972.78;6175725;23;20005;-56
2022/03/03 00:45:13;;;;;;;4.05;3.65;;;;;;;14.19;51.47;101966.56;6175264;23;20101;-52
2022/03/03 00:47:38;;;;;;;5.97;4.05;;;;;;;14.18;51.28;101971.03;6174335;23;20795;-55
2022/03/03 00:50:04;;;;;;;4.88;3.53;;;;;;;14.17;51.21;101963.97;6175336;23;20019;-56
2022/03/03 00:52:30;;;;;;;4.25;3.70;;;;;;;14.17;51.35;101963.97;6174888;23;20020;-56
2022/03/03 00:54:55;;;;;;;4.07;3.63;;;;;;;14.17;51.63;101957.75;6174959;23;20009;-57
2022/03/03 00:57:21;;;;;;;4.65;3.67;;;;;;;14.17;51.28;101963.13;6177517;23;20009;-57
2022/03/03 00:59:46;;;;;;;5.07;4.25;;;;;;;14.17;51.07;101968.47;6176439;23;20001;-56
2022/03/03 01:02:11;;;;;;;4.45;3.85;;;;;;;14.16;51.25;101959.56;6177154;23;20005;-56
2022/03/03 01:04:37;;;;;;;4.65;3.65;;;;;;;14.16;51.06;101964.06;6177057;23;20378;-56
2022/03/03 01:07:02;;;;;;;4.20;3.40;;;;;;;14.15;50.97;101962.34;6176999;23;20009;-56
2022/03/03 01:09:27;;;;;;;4.03;3.60;;;;;;;14.15;51.13;101960.53;6176031;23;20092;-56
2022/03/03 01:11:53;;;;;;;7.00;3.90;;;;;;;14.14;51.14;101964.16;6176138;23;20303;-57
2022/03/03 01:14:21;;;;;;;3.83;3.40;;;;;;;14.15;51.11;101965.03;6176150;23;20309;-56
2022/03/03 01:16:48;;;;;;;4.20;3.78;;;;;;;14.14;51.24;101965.97;6175465;23;20474;-57
2022/03/03 01:19:13;;;;;;;5.07;3.78;;;;;;;14.13;51.31;101962.44;6175392;23;19996;-56
2022/03/03 01:21:39;;;;;;;4.10;3.50;;;;;;;14.13;50.95;101961.59;6176392;23;20005;-57
2022/03/03 01:24:04;;;;;;;3.65;3.33;;;;;;;14.13;51.12;101956.22;6177121;23;20019;-53
2022/03/03 01:26:30;;;;;;;3.88;3.45;;;;;;;14.12;50.82;101950.00;6176434;23;20020;-55
2022/03/03 01:28:55;;;;;;;4.35;3.70;;;;;;;14.12;50.99;101955.34;6176718;23;20028;-57
2022/03/03 01:31:20;;;;;;;4.82;3.95;;;;;;;14.13;50.76;101956.22;6177808;23;20013;-56
2022/03/03 01:33:46;;;;;;;4.07;3.67;;;;;;;14.12;50.86;101954.50;6176832;23;20032;-54
2022/03/03 01:36:11;;;;;;;4.40;3.92;;;;;;;14.12;51.33;101951.81;6176803;23;20013;-55
2022/03/03 01:38:36;;;;;;;4.13;3.65;;;;;;;14.11;51.02;101939.38;6176236;23;20009;-56
2022/03/03 01:41:02;;;;;;;4.70;3.72;;;;;;;14.11;50.55;101942.03;6175941;23;20016;-55
2022/03/03 01:43:27;;;;;;;3.58;3.25;;;;;;;14.11;51.05;101939.38;6175798;23;20125;-56
2022/03/03 01:45:52;;;;;;;4.82;3.92;;;;;;;14.10;50.62;101933.16;6176002;23;20005;-57
2022/03/03 01:48:18;;;;;;;4.47;3.45;;;;;;;14.10;50.57;101921.59;6177110;23;20019;-55
2022/03/03 01:50:43;;;;;;;4.85;4.07;;;;;;;14.09;50.94;101926.09;6176482;23;20063;-55
2022/03/03 01:53:08;;;;;;;3.92;3.42;;;;;;;14.07;50.66;101920.84;6176327;23;20020;-55
2022/03/03 01:55:34;;;;;;;4.35;3.42;;;;;;;14.07;50.67;101926.19;6175696;23;20025;-55
2022/03/03 01:58:02;;;;;;;4.57;3.90;;;;;;;14.07;50.50;101919.97;6176691;23;20033;-56
2022/03/03 02:00:28;;;;;;;4.25;3.33;;;;;;;14.07;50.55;101919.97;6176693;23;20001;-56
2022/03/03 02:02:53;;;;;;;4.47;4.07;;;;;;;14.06;50.25;101913.72;6175574;23;20016;-55
2022/03/03 02:05:19;;;;;;;4.05;3.58;;;;;;;14.06;50.49;101911.06;6177336;23;20005;-56
2022/03/03 02:07:44;;;;;;;4.05;3.50;;;;;;;14.06;50.48;101908.38;6175850;23;20012;-56
2022/03/03 02:10:10;;;;;;;3.97;3.60;;;;;;;14.05;50.02;101905.78;6176459;23;20413;-55
2022/03/03 02:12:36;;;;;;;4.28;3.85;;;;;;;14.06;50.72;101903.03;6176465;23;20005;-55
2022/03/03 02:15:03;;;;;;;4.30;3.67;;;;;;;14.05;50.62;101904.00;6176818;23;20795;-55
2022/03/03 02:17:28;;;;;;;4.68;3.83;;;;;;;14.05;51.19;101900.44;6176629;23;20016;-55
2022/03/03 02:19:54;;;;;;;4.88;3.58;;;;;;;14.04;50.21;101904.09;6177722;23;20005;-56
2022/03/03 02:22:19;;;;;;;4.90;3.90;;;;;;;14.03;50.54;101892.53;6177590;23;20001;-56
2022/03/03 02:24:45;;;;;;;4.47;3.53;;;;;;;14.04;50.39;101904.09;6176921;23;20013;-56
2022/03/03 02:27:10;;;;;;;4.38;3.80;;;;;;;14.03;50.49;101891.63;6176648;23;20016;-56
2022/03/03 02:29:37;;;;;;;3.95;3.55;;;;;;;14.02;50.68;101901.50;6175566;23;20005;-54
2022/03/03 02:32:04;;;;;;;4.05;3.65;;;;;;;14.01;50.01;101891.75;6176057;23;20009;-55
2022/03/03 02:34:29;;;;;;;3.60;3.28;;;;;;;14.03;49.98;101891.63;6176555;23;20012;-55
2022/03/03 02:36:55;;;;;;;4.47;3.80;;;;;;;14.02;50.21;101890.78;6176599;23;20012;-56
2022/03/03 02:39:21;;;;;;;6.22;4.00;;;;;;;14.02;50.50;101896.13;6177099;23;20392;-56
2022/03/03 02:41:46;;;;;;;6.80;3.88;;;;;;;14.01;50.14;101891.75;6175856;23;20009;-56
2022/03/03 02:44:12;;;;;;;3.60;3.25;;;;;;;14.00;50.18;101892.69;6175314;23;20345;-56
2022/03/03 02:46:37;;;;;;;3.85;3.53;;;;;;;14.01;49.68;101889.09;6175815;23;20097;-56
2022/03/03 02:49:04;;;;;;;4.38;3.70;;;;;;;14.01;49.85;101891.75;6175310;23;20009;-56
2022/03/03 02:51:30;;;;;;;3.90;3.50;;;;;;;14.00;50.15;101887.34;6176131;23;20106;-56
2022/03/03 02:53:55;;;;;;;4.38;3.92;;;;;;;14.00;49.85;101883.81;6175909;23;20378;-57
2022/03/03 02:56:20;;;;;;;3.85;3.50;;;;;;;13.99;50.06;101890.09;6176564;23;20013;-56
2022/03/03 02:58:46;;;;;;;4.18;3.42;;;;;;;13.99;49.67;101885.63;6176198;23;20084;-56
2022/03/03 03:01:11;;;;;;;5.13;4.28;;;;;;;13.99;49.52;101884.75;6175996;23;20005;-54
2022/03/03 03:03:38;;;;;;;4.45;3.72;;;;;;;13.98;49.75;101883.91;6175735;23;20008;-54
2022/03/03 03:06:03;;;;;;;4.85;3.97;;;;;;;13.98;49.70;101886.56;6174696;23;20084;-56
2022/03/03 03:08:29;;;;;;;4.45;3.78;;;;;;;13.98;49.64;101891.94;6177894;23;20033;-56
2022/03/03 03:10:54;;;;;;;4.00;3.63;;;;;;;13.98;49.50;101889.25;6183097;23;20471;-56
2022/03/03 03:13:20;;;;;;;5.28;4.03;;;;;;;13.97;50.13;101884.00;6157092;23;20095;-56
2022/03/03 03:15:45;;;;;;;5.10;4.60;;;;;;;13.96;49.71;101891.16;6183334;23;20013;-56
2022/03/03 03:18:17;;;;;;;4.38;3.85;;;;;;;13.96;49.71;101884.97;6180333;23;20023;-56
2022/03/03 03:20:44;;;;;;;;;;;;;;;14.05;50.07;101884.38;6175873;23;20005;-56
2022/03/03 03:23:11;;;;;;;3.83;3.42;;;;;;;13.97;49.78;101881.31;6175799;23;20312;-53
2022/03/03 03:25:45;;;;;;;4.38;3.78;;;;;;;13.95;49.82;101868.00;6176209;23;20001;-55
2022/03/03 03:28:13;;;;;;;4.78;3.78;;;;;;;13.94;49.72;101871.66;6175713;23;20017;-55
2022/03/03 03:30:40;;;;;;;4.80;3.92;;;;;;;13.94;49.29;101860.94;6175481;23;20015;-56
2022/03/03 03:33:06;;;;;;;6.25;4.18;;;;;;;13.92;49.67;101852.16;6175646;23;20009;-56
2022/03/03 03:35:31;;;;;;;5.38;3.80;;;;;;;13.93;49.79;101851.19;6176004;23;20016;-57
2022/03/03 03:37:57;;;;;;;4.85;3.92;;;;;;;13.92;49.73;101862.88;6175813;23;20255;-54
2022/03/03 03:40:23;;;;;;;4.82;4.00;;;;;;;13.92;49.55;101860.19;6176480;23;20001;-55
2022/03/03 03:42:48;;;;;;;4.22;3.83;;;;;;;13.92;49.40;101862.88;6175428;23;20004;-55
2022/03/03 03:45:14;;;;;;;4.95;3.88;;;;;;;13.92;49.32;101864.66;6174879;23;20036;-56
2022/03/03 03:47:40;;;;;;;6.22;3.95;;;;;;;13.91;49.48;101861.13;6175867;23;20063;-56
2022/03/03 03:50:08;;;;;;;5.53;3.92;;;;;;;13.91;49.64;101854.94;6182916;23;20009;-56
2022/03/03 03:52:34;;;;;;;5.65;4.40;;;;;;;13.91;49.29;101849.56;6183351;23;20066;-56
2022/03/03 03:54:59;;;;;;;4.32;3.92;;;;;;;13.90;49.15;101848.72;6183007;23;20005;-56
2022/03/03 03:57:24;;;;;;;4.53;3.95;;;;;;;13.91;49.21;101849.56;6182830;23;20131;-56
2022/03/03 03:59:50;;;;;;;4.30;3.72;;;;;;;13.91;49.49;101844.22;6176421;23;20005;-56
2022/03/03 04:02:16;;;;;;;4.68;4.18;;;;;;;13.89;49.09;101846.97;6175273;23;20373;-56
2022/03/03 04:04:42;;;;;;;4.95;4.10;;;;;;;13.89;49.24;101847.84;6176059;23;20013;-57
2022/03/03 04:07:07;;;;;;;4.68;3.80;;;;;;;13.88;49.08;101848.81;6175179;23;20376;-56
2022/03/03 04:09:32;;;;;;;5.28;4.53;;;;;;;13.88;49.31;101851.47;6175455;23;20005;-53
2022/03/03 04:11:58;;;;;;;4.13;3.72;;;;;;;13.87;48.77;101851.56;6174207;23;20075;-56
2022/03/03 04:14:23;;;;;;;4.95;3.97;;;;;;;13.87;49.00;101849.75;6175946;23;20455;-56
2022/03/03 04:16:49;;;;;;;3.92;3.53;;;;;;;13.87;48.88;101854.25;6175460;23;20076;-56
2022/03/03 04:19:14;;;;;;;5.85;4.28;;;;;;;13.86;48.92;101852.53;6174912;23;20009;-55
2022/03/03 04:21:40;;;;;;;5.00;3.78;;;;;;;13.86;48.78;101847.19;6175058;23;20008;-56
2022/03/03 04:24:06;;;;;;;4.72;4.00;;;;;;;13.85;49.00;101837.44;6175003;23;20005;-55
2022/03/03 04:26:31;;;;;;;4.35;3.95;;;;;;;13.86;49.19;101841.84;6174463;23;20020;-55
2022/03/03 04:28:57;;;;;;;4.78;4.28;;;;;;;13.86;48.49;101847.19;6174987;23;20037;-54
2022/03/03 04:31:23;;;;;;;5.10;4.22;;;;;;;13.84;48.74;101833.00;6175694;23;20005;-56
2022/03/03 04:33:48;;;;;;;4.82;4.15;;;;;;;13.84;49.08;101833.00;6175541;23;20016;-56
2022/03/03 04:36:14;;;;;;;4.78;3.88;;;;;;;13.83;48.81;101825.94;6175503;23;20388;-53
2022/03/03 04:38:39;;;;;;;4.50;3.97;;;;;;;13.83;48.98;101823.28;6174654;23;20047;-56
2022/03/03 04:41:05;;;;;;;4.28;3.88;;;;;;;13.83;48.67;101825.94;6175522;23;20067;-55
2022/03/03 04:43:30;;;;;;;5.13;4.15;;;;;;;13.83;48.91;101820.59;6174868;23;20039;-56
2022/03/03 04:45:56;;;;;;;4.55;3.92;;;;;;;13.81;48.87;101820.69;6175417;23;20063;-57
2022/03/03 04:48:29;;;;;;;5.43;4.20;;;;;;;13.82;48.87;101810.84;6175460;23;20008;-56
2022/03/03 04:50:54;;;;;;;4.20;3.80;;;;;;;13.81;48.85;101806.44;6175623;23;20044;-57
2022/03/03 04:53:20;;;;;;;3.95;3.58;;;;;;;13.80;48.42;101807.38;6176186;23;20005;-56
2022/03/03 04:55:45;;;;;;;4.82;4.00;;;;;;;13.80;48.48;101802.03;6175128;23;20009;-55
2022/03/03 04:58:10;;;;;;;5.32;4.22;;;;;;;13.80;48.68;101808.28;6174988;23;20493;-56
2022/03/03 05:00:36;;;;;;;4.75;3.72;;;;;;;13.80;48.68;101804.72;6174990;23;20334;-56
2022/03/03 05:03:01;;;;;;;4.30;3.78;;;;;;;13.80;48.32;101810.06;6175184;23;20047;-55
2022/03/03 05:05:26;;;;;;;4.38;3.97;;;;;;;13.80;48.56;101810.06;6174803;23;20043;-56
2022/03/03 05:07:52;;;;;;;5.25;3.97;;;;;;;13.78;48.66;101810.16;6175764;23;20012;-55
2022/03/03 05:10:17;;;;;;;4.50;4.00;;;;;;;13.78;48.61;101806.63;6173726;23;20035;-57
2022/03/03 05:12:43;;;;;;;4.38;3.97;;;;;;;13.77;48.08;101813.81;6173448;23;20639;-57
2022/03/03 05:15:08;;;;;;;5.00;4.30;;;;;;;13.78;48.36;101817.34;6173803;23;20009;-56
2022/03/03 05:17:34;;;;;;;4.57;4.05;;;;;;;13.77;48.09;101816.50;6173291;23;20297;-56
2022/03/03 05:19:59;;;;;;;4.82;4.00;;;;;;;13.77;48.39;101816.50;6174954;23;20005;-56
2022/03/03 05:22:24;;;;;;;5.10;3.97;;;;;;;13.76;48.07;101814.75;6175395;23;20088;-56
2022/03/03 05:24:52;;;;;;;7.53;4.45;;;;;;;13.76;47.97;101813.91;6175291;23;20009;-56
2022/03/03 05:27:18;;;;;;;6.05;4.53;;;;;;;13.75;47.98;101817.53;6175196;23;20012;-55
2022/03/03 05:29:43;;;;;;;4.43;4.00;;;;;;;13.75;47.91;101818.41;6174538;23;20009;-56
2022/03/03 05:32:08;;;;;;;4.30;3.88;;;;;;;13.75;47.94;101815.72;6174982;23;20087;-55
2022/03/03 05:34:34;;;;;;;5.15;3.63;;;;;;;13.74;47.99;101813.13;6175194;23;20009;-56
2022/03/03 05:37:00;;;;;;;4.45;3.78;;;;;;;13.74;48.22;101818.50;6175083;23;20424;-54
2022/03/03 05:39:28;;;;;;;4.88;3.80;;;;;;;13.73;48.37;101824.78;6174583;23;20001;-55
2022/03/03 05:41:54;;;;;;;5.22;4.47;;;;;;;13.73;48.17;101822.09;6175158;23;20005;-56
2022/03/03 05:44:20;;;;;;;4.40;3.85;;;;;;;13.73;48.05;101827.47;6176720;23;20036;-57
2022/03/03 05:46:47;;;;;;;5.00;4.50;;;;;;;13.72;47.76;101834.63;6176445;23;20009;-55
2022/03/03 05:49:12;;;;;;;4.47;3.95;;;;;;;13.73;47.57;101830.13;6176069;23;20360;-55
2022/03/03 05:51:38;;;;;;;5.82;4.22;;;;;;;13.72;47.64;101826.59;6176750;23;20013;-57
2022/03/03 05:54:04;;;;;;;4.20;3.70;;;;;;;13.73;47.71;101830.13;6175827;23;20012;-56
2022/03/03 05:56:37;;;;;;;5.82;4.47;;;;;;;13.73;47.79;101824.78;6175994;23;20033;-55
2022/03/03 05:59:06;;;;;;;5.65;4.15;;;;;;;13.71;47.99;101821.34;6176107;23;20067;-56
2022/03/03 06:01:38;;;;;;;5.32;4.25;;;;;;;13.70;47.38;101817.81;6175566;23;20372;-56
2022/03/03 06:04:06;;;;;;;5.53;4.15;;;;;;;13.69;47.21;101811.59;6174982;23;20047;-56
2022/03/03 06:06:36;;;;;;;4.65;4.03;;;;;;;13.69;47.42;101816.97;6174719;23;20031;-56
2022/03/03 06:09:10;;;;;;;4.68;3.70;;;;;;;13.70;47.90;101823.16;6175384;23;20463;-57
2022/03/03 06:11:43;;;;;;;4.60;3.97;;;;;;;13.68;47.61;101815.22;6175873;23;20012;-56
2022/03/03 06:14:10;;;;;;;4.25;3.85;;;;;;;13.69;47.49;101813.44;6175770;23;20103;-56
2022/03/03 06:16:39;;;;;;;5.68;4.20;;;;;;;13.67;47.53;101810.84;6175643;23;20028;-56
2022/03/03 06:19:04;;;;;;;4.50;4.03;;;;;;;13.67;47.64;101816.19;6175498;23;20375;-56
2022/03/03 06:21:30;;;;;;;4.55;4.10;;;;;;;13.67;47.22;101821.56;6176417;23;20040;-56
2022/03/03 06:23:56;;;;;;;4.72;4.20;;;;;;;13.67;47.22;101818.88;6175618;23;20009;-56
2022/03/03 06:26:22;;;;;;;4.10;3.70;;;;;;;13.66;47.37;101819.81;6177379;23;20013;-57
2022/03/03 06:28:48;;;;;;;5.50;4.50;;;;;;;13.66;47.31;101818.97;6176331;23;20085;-56
2022/03/03 06:31:14;;;;;;;5.32;3.92;;;;;;;13.66;47.60;101821.63;6175810;23;20362;-56
2022/03/03 06:33:40;;;;;;;5.05;3.88;;;;;;;13.65;47.15;101820.78;6176681;23;20297;-56
2022/03/03 06:36:06;;;;;;;4.55;4.05;;;;;;;13.65;47.16;101825.25;6175864;23;20005;-56
2022/03/03 06:38:32;;;;;;;4.13;3.67;;;;;;;13.65;47.16;101817.22;6176949;23;20012;-56
2022/03/03 06:40:58;;;;;;;4.45;3.95;;;;;;;13.64;46.97;101816.38;6177109;23;20019;-57
2022/03/03 06:43:24;;;;;;;6.03;3.78;;;;;;;13.65;47.34;101825.25;6177307;23;20060;-57
2022/03/03 06:45:50;;;;;;;4.75;3.65;;;;;;;13.64;47.13;101823.56;6177227;23;20005;-55
2022/03/03 06:48:15;;;;;;;4.63;3.55;;;;;;;13.64;47.20;101828.91;6176125;23;20017;-55
2022/03/03 06:50:42;;;;;;;5.18;4.03;;;;;;;13.64;46.95;101827.06;6175841;23;20421;-56
2022/03/03 06:53:08;;;;;;;5.15;3.97;;;;;;;13.63;47.46;101830.72;6174762;23;20567;-56
2022/03/03 06:55:35;;;;;;;5.20;3.55;;;;;;;13.63;46.93;101836.06;6175440;23;20085;-57
2022/03/03 06:58:00;;;;;;;5.82;4.38;;;;;;;13.64;47.17;101836.94;6176472;23;20091;-56
2022/03/03 07:00:29;;;;;;;5.78;3.83;;;;;;;13.64;47.32;101837.78;6176069;23;20301;-56
2022/03/03 07:02:54;;;;;;;4.30;3.90;;;;;;;13.64;46.79;101842.28;6176848;23;20008;-56
2022/03/03 07:05:21;;;;;;;4.88;3.97;;;;;;;13.63;47.34;101840.53;6177149;23;20091;-56
2022/03/03 07:07:49;;;;;;;4.25;3.85;;;;;;;13.63;47.35;101838.75;6176203;23;20008;-56
2022/03/03 07:10:19;;;;;;;4.63;4.10;;;;;;;13.63;46.94;101844.09;6183053;23;20069;-55
2022/03/03 07:12:44;;;;;;;5.05;4.55;;;;;;;13.62;46.73;101845.03;6183775;23;20079;-55
2022/03/03 07:15:10;;;;;;;4.63;3.97;;;;;;;13.63;47.08;101854.81;6183397;23;20086;-57
2022/03/03 07:17:41;;;;;;;4.28;3.88;;;;;;;13.62;46.81;101845.03;6182976;23;20388;-56
2022/03/03 07:20:13;;;;;;;4.72;4.22;;;;;;;13.62;47.24;101845.03;6176195;23;20005;-55
2022/03/03 07:22:53;;;;;;;6.95;4.18;;;;;;;13.63;47.15;101846.78;6176328;23;20114;-57
2022/03/03 07:25:23;;;;;;;4.88;4.00;;;;;;;13.61;46.98;101843.34;6176108;23;20040;-54
2022/03/03 07:27:53;;;;;;;4.28;3.85;;;;;;;13.61;46.76;101848.69;6176560;23;20004;-57
2022/03/03 07:30:19;;;;;;;4.65;3.90;;;;;;;13.62;47.03;101852.22;6176398;23;20083;-57
2022/03/03 07:32:55;;;;;;;4.97;3.78;;;;;;;13.62;47.24;101850.41;6176029;23;20440;-57
2022/03/03 07:35:25;;;;;;;4.25;3.45;;;;;;;13.62;46.74;101854.91;6176832;23;20104;-54
2022/03/03 07:37:58;;;;;;;3.92;3.53;;;;;;;13.62;46.97;101849.53;6176378;23;20054;-57
2022/03/03 07:40:29;;;;;;;4.35;3.42;;;;;;;13.61;47.35;101842.44;6176238;23;20039;-57
2022/03/03 07:42:55;;;;;;;5.07;3.40;;;;;;;13.61;46.83;101846.03;6176515;23;20009;-57
2022/03/03 07:45:20;;;;;;;4.80;4.15;;;;;;;13.61;47.19;101847.81;6176752;23;20031;-56
2022/03/03 07:47:49;;;;;;;4.68;3.75;;;;;;;13.60;46.89;101846.09;6175880;23;20016;-55
2022/03/03 07:50:15;;;;;;;4.30;3.75;;;;;;;13.60;47.35;101849.63;6176097;23;20009;-56
2022/03/03 07:52:43;;;;;;;4.05;3.38;;;;;;;13.60;47.09;101846.97;6176160;23;20516;-57
2022/03/03 07:55:10;;;;;;;3.78;3.47;;;;;;;13.60;47.50;101854.97;6176012;23;20001;-55
2022/03/03 07:57:39;;;;;;;4.18;3.38;;;;;;;13.60;47.11;101860.34;6175711;23;20000;-55
2022/03/03 08:00:09;;;;;;;3.20;2.90;;;;;;;13.59;47.18;101855.91;6175672;23;20005;-57
2022/03/03 08:02:36;;;;;;;3.60;3.30;;;;;;;13.60;47.31;101863.00;6175706;23;20074;-56
2022/03/03 08:05:05;;;;;;;5.00;3.60;;;;;;;13.60;47.33;101857.66;6176097;23;20009;-56
2022/03/03 08:07:34;;;;;;;5.00;3.65;;;;;;;13.60;47.30;101862.16;6175963;23;20405;-56
2022/03/03 08:10:01;;;;;;;4.35;3.78;;;;;;;13.61;47.22;101858.50;6176259;23;20016;-56
2022/03/03 08:12:31;;;;;;;4.80;3.90;;;;;;;13.61;47.36;101879.91;6174900;23;20008;-57
2022/03/03 08:14:58;;;;;;;3.65;3.22;;;;;;;13.60;47.41;101868.38;6175229;23;20337;-56
2022/03/03 08:17:25;;;;;;;5.40;3.85;;;;;;;13.59;47.31;101880.00;6176158;23;20001;-56
2022/03/03 08:19:54;;;;;;;4.10;3.58;;;;;;;13.60;47.56;101872.88;6175607;23;19997;-57
2022/03/03 08:22:24;;;;;;;4.55;3.70;;;;;;;13.60;47.08;101873.72;6175530;23;20358;-55
2022/03/03 08:24:57;;;;;;;4.05;3.75;;;;;;;13.61;47.09;101870.09;6175764;23;20004;-55
2022/03/03 08:27:25;;;;;;;4.10;3.47;;;;;;;13.60;47.25;101868.38;6176750;23;20063;-56
2022/03/03 08:29:51;;;;;;;3.42;2.83;;;;;;;13.60;46.99;101863.00;6175524;23;20009;-56
2022/03/03 08:32:19;;;;;;;4.18;3.28;;;;;;;13.60;46.99;101868.38;6172512;23;20001;-56
2022/03/03 08:34:57;;;;;;;3.45;2.95;;;;;;;13.61;47.15;101870.09;6175404;23;20688;-56
2022/03/03 08:37:34;;;;;;;4.65;3.50;;;;;;;13.61;47.43;101862.06;6176212;23;20009;-57
2022/03/03 08:40:01;;;;;;;3.20;2.70;;;;;;;13.62;47.67;101861.09;6175311;23;20038;-55
2022/03/03 08:42:30;;;;;;;3.50;3.15;;;;;;;13.62;47.29;101854.91;6174453;23;20309;-57
2022/03/03 08:45:02;;;;;;;4.35;3.10;;;;;;;13.61;47.60;101859.41;6174525;23;20437;-56
2022/03/03 08:47:28;;;;;;;3.38;3.08;;;;;;;13.62;47.82;101855.75;6174611;23;20029;-56
2022/03/03 08:50:14;;;;;;;3.65;2.83;;;;;;;13.65;47.67;101852.91;6174838;23;20373;-56
2022/03/03 08:52:42;;;;;;;3.35;2.60;;;;;;;13.64;47.50;101852.97;6174285;23;20009;-56
2022/03/03 08:55:10;;;;;;;3.72;3.13;;;;;;;13.64;47.97;101853.84;6174881;23;20005;-56
2022/03/03 08:57:40;;;;;;;3.35;3.05;;;;;;;13.65;47.56;101854.69;6174569;23;20432;-58
2022/03/03 09:00:08;;;;;;;3.35;2.70;;;;;;;13.65;47.75;101855.56;6173931;23;20011;-55
2022/03/03 09:02:34;;;;;;;3.80;3.13;;;;;;;13.65;47.66;101852.00;6175171;23;20033;-57
2022/03/03 09:04:59;;;;;;;3.20;2.90;;;;;;;13.66;47.56;101853.75;6174750;23;20020;-56
2022/03/03 09:07:25;;;;;;;3.65;2.95;;;;;;;13.66;47.69;101857.28;6175021;23;20059;-56
2022/03/03 09:09:50;;;;;;;4.43;3.28;;;;;;;13.66;48.00;101857.28;6174990;23;20009;-55
2022/03/03 09:12:15;;;;;;;3.28;2.97;;;;;;;13.67;47.68;101859.00;6174748;23;20087;-56
2022/03/03 09:14:41;;;;;;;4.32;3.50;;;;;;;13.67;47.53;101860.84;6174317;23;20456;-56
2022/03/03 09:17:07;;;;;;;4.03;3.20;;;;;;;13.67;47.78;101860.84;6174857;23;20305;-54
2022/03/03 09:19:32;;;;;;;3.20;2.80;;;;;;;13.67;47.54;101855.50;6176395;23;20005;-56
2022/03/03 09:21:58;;;;;;;3.30;2.80;;;;;;;13.67;47.93;101859.00;6176585;23;20009;-57
2022/03/03 09:24:24;;;;;;;2.78;2.55;;;;;;;13.67;47.99;101861.69;6176732;23;20005;-56
2022/03/03 09:26:51;;;;;;;4.35;3.10;;;;;;;13.67;47.78;101853.66;6177456;23;20074;-57
2022/03/03 09:29:17;;;;;;;3.72;3.33;;;;;;;13.67;47.64;101851.00;6176920;23;20005;-54
2022/03/03 09:31:43;;;;;;;3.42;3.03;;;;;;;13.68;48.16;101849.16;6176676;23;20019;-55
2022/03/03 09:34:09;;;;;;;3.00;2.67;;;;;;;13.68;48.02;101859.88;6176758;23;20401;-56
2022/03/03 09:36:34;;;;;;;4.35;2.90;;;;;;;13.69;48.19;101850.91;6176733;23;20111;-56
2022/03/03 09:39:00;;;;;;;3.50;3.15;;;;;;;13.68;47.99;101844.66;6176731;23;20009;-56
2022/03/03 09:41:25;;;;;;;4.35;3.38;;;;;;;13.68;47.57;101844.66;6176930;23;20044;-56
2022/03/03 09:43:51;;;;;;;3.53;2.80;;;;;;;13.68;47.81;101842.00;6177057;23;20017;-56
2022/03/03 09:46:16;;;;;;;3.58;2.85;;;;;;;13.69;47.72;101841.03;6174163;23;20013;-56
2022/03/03 09:48:42;;;;;;;3.10;2.80;;;;;;;13.68;47.92;101839.31;6176149;23;20067;-56
2022/03/03 09:51:07;;;;;;;3.30;3.00;;;;;;;13.69;47.95;101841.03;6176340;23;20436;-56
2022/03/03 09:53:33;;;;;;;4.10;3.00;;;;;;;13.69;47.93;101842.88;6174632;23;20009;-55
2022/03/03 09:55:59;;;;;;;5.03;3.38;;;;;;;13.71;48.27;101845.44;6176314;23;20009;-57
2022/03/03 09:58:25;;;;;;;3.92;3.08;;;;;;;13.69;48.00;101843.72;6176149;23;20088;-56
2022/03/03 10:00:51;;;;;;;4.07;2.88;;;;;;;13.69;47.95;101843.72;6176774;23;20009;-54
2022/03/03 10:03:18;;;;;;;3.58;3.10;;;;;;;13.69;47.93;101846.41;6176125;23;20084;-57
2022/03/03 10:05:51;;;;;;;4.10;3.17;;;;;;;13.68;48.07;101844.66;6176482;23;20004;-54
2022/03/03 10:08:24;;;;;;;3.47;2.88;;;;;;;13.71;48.39;101843.63;6175874;23;20004;-56
2022/03/03 10:10:52;;;;;;;3.70;3.30;;;;;;;13.69;48.07;101841.03;6177077;23;20001;-57
2022/03/03 10:13:19;;;;;;;4.30;3.08;;;;;;;13.69;48.31;101838.38;6176646;23;20005;-55
2022/03/03 10:15:56;;;;;;;3.38;2.92;;;;;;;13.69;48.41;101834.84;6177083;23;20013;-56
2022/03/03 10:18:23;;;;;;;4.93;3.25;;;;;;;13.69;48.04;101840.19;6177236;23;20001;-56
2022/03/03 10:21:02;;;;;;;3.60;2.90;;;;;;;13.71;48.34;101842.75;6177334;23;20027;-57
2022/03/03 10:23:33;;;;;;;4.03;3.05;;;;;;;13.71;48.54;101842.75;6176525;23;20000;-56
2022/03/03 10:26:02;;;;;;;3.70;2.78;;;;;;;13.71;48.30;101834.72;6176222;23;20012;-57
2022/03/03 10:28:30;;;;;;;3.33;2.92;;;;;;;13.70;48.41;101831.19;6176180;23;20012;-56
2022/03/03 10:31:03;;;;;;;3.85;2.70;;;;;;;13.71;48.55;101829.38;6176747;23;20058;-56
2022/03/03 10:33:32;;;;;;;3.72;3.28;;;;;;;13.71;48.53;101826.69;6176260;23;20005;-55
2022/03/03 10:36:03;;;;;;;3.63;3.13;;;;;;;13.71;48.23;101827.56;6176417;23;20429;-56
2022/03/03 10:38:30;;;;;;;2.92;2.70;;;;;;;13.73;48.30;101827.47;6174565;23;20005;-56
2022/03/03 10:40:57;;;;;;;3.40;2.97;;;;;;;13.72;48.53;101829.28;6176222;23;20016;-56
2022/03/03 10:43:23;;;;;;;3.78;3.28;;;;;;;13.72;48.49;101828.44;6177210;23;20108;-57
2022/03/03 10:45:58;;;;;;;3.63;2.70;;;;;;;13.72;48.70;101826.59;6176394;23;20434;-55
2022/03/03 10:48:26;;;;;;;3.38;3.00;;;;;;;13.73;48.37;101830.13;6175657;23;20417;-56
2022/03/03 10:50:54;;;;;;;4.93;3.17;;;;;;;13.73;48.75;101827.47;6176582;23;20005;-55
2022/03/03 10:53:21;;;;;;;3.58;2.88;;;;;;;13.74;48.51;101823.84;6176776;23;20024;-56
2022/03/03 10:56:00;;;;;;;4.55;3.28;;;;;;;13.76;48.49;101819.25;6176437;23;20301;-56
2022/03/03 10:58:45;;;;;;;3.90;3.00;;;;;;;13.76;48.84;101825.47;6176364;23;20005;-55
2022/03/03 11:01:11;;;;;;;4.53;3.20;;;;;;;13.74;48.65;101814.00;6175657;23;20009;-56
2022/03/03 11:03:37;;;;;;;4.95;2.97;;;;;;;13.76;48.41;101813.91;6176371;23;20428;-56
2022/03/03 11:06:03;;;;;;;4.22;3.17;;;;;;;13.74;48.66;101808.63;6175842;23;20031;-56
2022/03/03 11:08:29;;;;;;;3.53;3.13;;;;;;;13.75;48.26;101815.72;6176394;23;20009;-57
2022/03/03 11:10:55;;;;;;;5.72;3.63;;;;;;;13.75;48.80;101823.75;6175277;23;20035;-56
2022/03/03 11:13:21;;;;;;;4.03;3.60;;;;;;;13.75;48.26;101815.72;6176759;23;20032;-56
2022/03/03 11:15:48;;;;;;;3.72;3.20;;;;;;;13.76;48.70;101808.53;6176313;23;20068;-53
2022/03/03 11:18:18;;;;;;;4.93;3.85;;;;;;;13.76;48.65;101803.19;6175023;23;20091;-57
2022/03/03 11:20:46;;;;;;;3.75;3.38;;;;;;;13.76;48.69;101808.53;6175905;23;20009;-55
2022/03/03 11:23:11;;;;;;;5.65;4.25;;;;;;;13.76;48.83;101816.56;6175887;23;20084;-56